Time;durP1;ratioP1;P1;durP2;ratioP2;P2;SDS_P1;SDS_P2;PMS_P1;PMS_P2;Temp;Humidity;BMP_temperature;BMP_pressure;BME280_temperature;BME280_humidity;BME280_pressure;Samples;Min_cycle;Max_cycle;Signal;HPM_P1;HPM_P2
2022/01/04 00:01:16;;;;;;;;;;;;;;;14.28;70.17;100364.97;5033808;28;19971;-50
2022/01/04 00:03:43;;;;;;;;;;;;;;;14.28;69.74;100353.72;5034298;28;19960;-54
2022/01/04 00:06:09;;;;;;;;;;;;;;;14.28;69.52;100342.50;5034101;28;19964;-51
2022/01/04 00:08:36;;;;;;;;;;;;;;;14.28;69.38;100346.13;5034002;28;20023;-53
2022/01/04 00:11:16;;;;;;;;;;;;;;;14.28;69.16;100334.91;5034032;28;19921;-53
2022/01/04 00:13:43;;;;;;;;;;;;;;;14.26;68.82;100342.81;5033626;28;19979;-53
2022/01/04 00:16:11;;;;;;;;;;;;;;;14.27;68.83;100336.06;5034710;28;19975;-50
2022/01/04 00:18:38;;;;;;;;;;;;;;;14.29;68.58;100330.97;5033887;28;20361;-53
2022/01/04 00:21:06;;;;;;;;;;;;;;;14.32;68.03;100335.94;5037358;28;20007;-52
2022/01/04 00:23:32;;;;;;;;;;;;;;;14.37;67.90;100304.94;5053725;28;19955;-54
2022/01/04 00:25:59;;;;;;;;;;;;;;;14.40;67.34;100306.31;5053884;28;19960;-54
2022/01/04 00:28:27;;;;;;;;;;;;;;;14.42;67.07;100296.41;5049032;28;19968;-54
2022/01/04 00:30:54;;;;;;;;;;;;;;;14.46;66.36;100296.59;5033522;28;19940;-56
2022/01/04 00:33:21;;;;;;;;;;;;;;;14.49;66.06;100292.34;5033961;28;19931;-51
2022/01/04 00:35:48;;;;;;;;;;;;;;;14.55;65.37;100293.94;5033394;28;19932;-55
2022/01/04 00:38:16;;;;;;;;;;;;;;;14.56;65.10;100284.34;5033787;28;19925;-54
2022/01/04 00:40:42;;;;;;;;;;;;;;;14.56;64.49;100278.75;5033711;28;19957;-55
2022/01/04 00:43:10;;;;;;;;;;;;;;;14.50;64.59;100282.78;5033615;28;19983;-55
2022/01/04 00:45:37;;;;;;;;;;;;;;;14.46;64.35;100218.81;5033165;28;20000;-53
2022/01/04 00:50:33;;;;;;;;;;;;;;;14.50;62.93;100240.66;5033901;28;20019;-53
2022/01/04 00:53:00;;;;;;;;;;;;;;;14.47;62.79;100233.66;5033606;28;20000;-54
2022/01/04 00:55:27;;;;;;;;;;;;;;;14.46;62.41;100241.28;5033401;28;20008;-55
2022/01/04 00:57:54;;;;;;;;;;;;;;;14.43;62.70;100236.28;5033170;28;20400;-54
2022/01/04 01:00:21;;;;;;;;;;;;;;;14.41;62.30;100224.50;5033013;28;20043;-53
2022/01/04 01:02:48;;;;;;;;;;;;;;;14.44;62.40;100223.88;5033089;28;20015;-55
2022/01/04 01:05:17;;;;;;;;;;;;;;;14.43;62.43;100218.59;5033158;28;19921;-54
2022/01/04 01:07:43;;;;;;;;;;;;;;;14.44;62.14;100240.75;5033493;28;19960;-52
2022/01/04 01:12:54;;;;;;;;;;;;;;;14.52;62.12;100232.75;5032854;28;19960;-52
2022/01/04 01:15:21;;;;;;;;;;;;;;;14.55;61.84;100237.75;5032900;28;19964;-54
2022/01/04 01:17:48;;;;;;;;;;;;;;;14.55;61.89;100216.09;5032835;28;19927;-54
2022/01/04 01:20:15;;;;;;;;;;;;;;;14.56;61.12;100216.91;5032844;28;19948;-54
2022/01/04 01:22:42;;;;;;;;;;;;;;;14.54;61.19;100202.38;5032768;28;20003;-54
2022/01/04 01:25:09;;;;;;;;;;;;;;;14.51;61.00;100201.00;5033404;28;20004;-52
2022/01/04 01:27:36;;;;;;;;;;;;;;;14.48;60.88;100209.22;5048559;28;20321;-53
2022/01/04 01:30:03;;;;;;;;;;;;;;;14.44;60.72;100200.59;5052286;28;19963;-54
2022/01/04 01:32:30;;;;;;;;;;;;;;;14.41;60.55;100204.84;5052844;28;19927;-52
2022/01/04 01:34:57;;;;;;;;;;;;;;;14.40;60.78;100191.97;5035387;28;20012;-53
2022/01/04 01:37:24;;;;;;;;;;;;;;;14.39;60.19;100184.69;5040494;28;19982;-53
2022/01/04 01:39:51;;;;;;;;;;;;;;;14.38;60.21;100188.63;5052712;28;20019;-53
2022/01/04 01:42:17;;;;;;;;;;;;;;;14.36;60.42;100184.50;5047161;28;19921;-54
2022/01/04 01:44:44;;;;;;;;;;;;;;;14.33;60.54;100185.13;5032510;28;20007;-55
2022/01/04 01:47:11;;;;;;;;;;;;;;;14.32;60.17;100172.19;5032458;28;19935;-53
2022/01/04 01:49:38;;;;;;;;;;;;;;;14.31;59.66;100174.19;5031560;28;19979;-54
2022/01/04 01:52:05;;;;;;;;;;;;;;;14.30;59.50;100158.47;5032622;28;20028;-56
2022/01/04 01:54:32;;;;;;;;;;;;;;;14.32;59.33;100164.59;5032479;28;19920;-52
2022/01/04 01:56:59;;;;;;;;;;;;;;;14.34;59.05;100158.69;5032634;28;19931;-54
2022/01/04 01:59:26;;;;;;;;;;;;;;;14.34;59.31;100156.69;5032294;28;19968;-54
2022/01/04 02:01:53;;;;;;;;;;;;;;;14.33;59.25;100168.25;5032346;28;20409;-54
2022/01/04 02:04:20;;;;;;;;;;;;;;;14.31;59.11;100159.31;5032227;28;19967;-53
2022/01/04 02:06:47;;;;;;;;;;;;;;;14.28;59.09;100149.53;5032238;28;19921;-54
2022/01/04 02:09:13;;;;;;;;;;;;;;;14.29;59.09;100172.81;5032386;28;20003;-55
2022/01/04 02:11:41;;;;;;;;;;;;;;;14.30;58.71;100180.13;5032558;28;20023;-55
2022/01/04 02:14:07;;;;;;;;;;;;;;;14.30;58.98;100164.09;5040626;28;19920;-54
2022/01/04 02:16:34;;;;;;;;;;;;;;;14.30;58.54;100175.31;5035601;28;20384;-54
2022/01/04 02:19:01;;;;;;;;;;;;;;;14.27;58.56;100170.34;5036214;28;20443;-53
2022/01/04 02:21:27;;;;;;;;;;;;;;;14.26;58.56;100140.59;5036123;28;19968;-55
2022/01/04 02:23:54;;;;;;;;;;;;;;;14.25;58.08;100119.25;5036288;28;19921;-53
2022/01/04 02:26:21;;;;;;;;;;;;;;;14.27;57.90;100136.63;5035804;28;19947;-54
2022/01/04 02:28:49;;;;;;;;;;;;;;;14.27;57.75;100136.63;5035912;28;20024;-52
2022/01/04 02:31:16;;;;;;;;;;;;;;;14.25;58.03;100124.88;5038242;28;19968;-53
2022/01/04 02:33:43;;;;;;;;;;;;;;;14.27;58.30;100121.75;5055522;28;19920;-53
2022/01/04 02:36:10;;;;;;;;;;;;;;;14.28;58.02;100113.00;5047670;28;19937;-51
2022/01/04 02:38:37;;;;;;;;;;;;;;;14.30;57.99;100110.72;5035795;28;20347;-54
2022/01/04 02:41:04;;;;;;;;;;;;;;;14.30;57.91;100107.91;5042184;28;20311;-53
2022/01/04 02:43:31;;;;;;;;;;;;;;;14.32;57.87;100085.94;5055675;28;20011;-53
2022/01/04 02:45:57;;;;;;;;;;;;;;;14.33;57.76;100082.00;5049228;28;19961;-54
2022/01/04 02:48:25;;;;;;;;;;;;;;;14.34;57.79;100092.09;5036471;28;20357;-54
2022/01/04 02:50:51;;;;;;;;;;;;;;;14.32;57.89;100074.72;5035482;28;19967;-53
2022/01/04 02:53:18;;;;;;;;;;;;;;;14.34;57.65;100071.59;5035817;28;20008;-53
2022/01/04 02:55:45;;;;;;;;;;;;;;;14.34;57.56;100064.00;5035663;28;20367;-53
2022/01/04 02:58:12;;;;;;;;;;;;;;;14.36;57.49;100055.28;5035716;28;19925;-52
2022/01/04 03:00:39;;;;;;;;;;;;;;;14.36;57.67;100039.25;5035319;28;20019;-53
2022/01/04 03:03:06;;;;;;;;;;;;;;;14.36;57.36;100044.88;5035448;28;19975;-54
2022/01/04 03:05:33;;;;;;;;;;;;;;;14.34;57.35;100024.69;5037054;28;19967;-49
2022/01/04 03:07:59;;;;;;;;;;;;;;;14.35;57.17;100037.56;5055172;28;20012;-54
2022/01/04 03:10:26;;;;;;;;;;;;;;;14.36;56.89;100047.66;5050241;28;20015;-54
2022/01/04 03:12:53;;;;;;;;;;;;;;;14.37;56.82;100034.44;5035447;28;20409;-54
2022/01/04 03:15:19;;;;;;;;;;;;;;;14.37;57.06;100021.22;5053403;28;19959;-54
2022/01/04 03:17:47;;;;;;;;;;;;;;;14.38;56.67;99991.16;5053592;28;20087;-55
2022/01/04 03:20:14;;;;;;;;;;;;;;;14.37;56.76;100018.41;5055033;28;19999;-53
2022/01/04 03:22:41;;;;;;;;;;;;;;;14.38;57.00;99997.59;5045819;28;19924;-54
2022/01/04 03:25:08;;;;;;;;;;;;;;;14.40;56.76;100000.09;5035089;28;20009;-54
2022/01/04 03:27:34;;;;;;;;;;;;;;;14.43;56.56;99988.22;5033866;28;20003;-54
2022/01/04 03:30:01;;;;;;;;;;;;;;;14.44;56.74;99996.31;5034418;28;20360;-50
2022/01/04 03:32:28;;;;;;;;;;;;;;;14.50;57.00;99980.22;5054689;28;20011;-52
2022/01/04 03:34:54;;;;;;;;;;;;;;;14.63;56.97;99986.88;5053517;28;20019;-55
2022/01/04 03:37:21;;;;;;;;;;;;;;;14.71;56.62;99969.25;5046025;28;20456;-53
2022/01/04 03:39:48;;;;;;;;;;;;;;;14.72;55.94;99925.94;5050302;28;20025;-54
2022/01/04 03:42:14;;;;;;;;;;;;;;;14.72;55.64;99973.72;5034674;28;20020;-55
2022/01/04 03:44:41;;;;;;;;;;;;;;;14.69;55.82;99937.81;5034440;28;20396;-53
2022/01/04 03:47:08;;;;;;;;;;;;;;;14.65;55.90;99951.69;5034268;28;20023;-52
2022/01/04 03:49:34;;;;;;;;;;;;;;;14.63;56.13;99956.81;5034461;28;19921;-54
2022/01/04 03:52:02;;;;;;;;;;;;;;;14.64;55.87;99957.66;5034566;28;19925;-54
2022/01/04 03:54:28;;;;;;;;;;;;;;;14.63;56.38;99958.78;5034483;28;20024;-55
2022/01/04 03:56:55;;;;;;;;;;;;;;;14.62;56.71;99957.13;5035153;28;20396;-54
2022/01/04 03:59:22;;;;;;;;;;;;;;;14.60;56.41;99965.06;5034464;28;20020;-52
2022/01/04 04:01:49;;;;;;;;;;;;;;;14.58;56.21;99975.78;5034185;28;20460;-54
2022/01/04 04:04:17;;;;;;;;;;;;;;;14.58;56.41;99964.56;5034628;28;20344;-54
2022/01/04 04:06:43;;;;;;;;;;;;;;;14.59;56.23;99947.34;5034187;28;19960;-54
2022/01/04 04:09:10;;;;;;;;;;;;;;;14.63;56.17;99942.78;5034508;28;20352;-53
2022/01/04 04:11:37;;;;;;;;;;;;;;;14.66;56.48;99930.03;5034211;28;19967;-51
2022/01/04 04:14:04;;;;;;;;;;;;;;;14.65;56.46;99932.03;5034402;28;19967;-54
2022/01/04 04:16:33;;;;;;;;;;;;;;;14.64;56.45;99915.50;5034319;28;20530;-53
2022/01/04 04:19:00;;;;;;;;;;;;;;;14.60;56.60;99906.06;5034285;28;20041;-52
2022/01/04 04:21:26;;;;;;;;;;;;;;;14.62;57.21;99893.31;5034407;28;20344;-54
2022/01/04 04:23:53;;;;;;;;;;;;;;;14.64;57.33;99891.03;5033768;28;20024;-53
2022/01/04 04:26:20;;;;;;;;;;;;;;;14.63;57.37;99900.63;5033979;28;20332;-53
2022/01/04 04:28:46;;;;;;;;;;;;;;;14.60;57.33;99892.84;5033578;28;20016;-54
2022/01/04 04:31:14;;;;;;;;;;;;;;;14.58;57.42;99877.44;5034346;28;20027;-53
2022/01/04 04:33:40;;;;;;;;;;;;;;;14.59;57.97;99874.28;5033749;28;19921;-54
2022/01/04 04:36:09;;;;;;;;;;;;;;;14.63;58.21;99866.91;5035906;28;20032;-54
2022/01/04 04:38:35;;;;;;;;;;;;;;;14.66;58.07;99913.16;5053136;28;19920;-52
2022/01/04 04:41:02;;;;;;;;;;;;;;;14.66;57.98;99828.88;5053390;28;20202;-54
2022/01/04 04:43:29;;;;;;;;;;;;;;;14.68;58.08;99877.16;5052105;28;19971;-55
2022/01/04 04:45:56;;;;;;;;;;;;;;;14.68;58.33;99820.94;5053419;28;20016;-54
2022/01/04 04:48:24;;;;;;;;;;;;;;;14.67;58.58;99900.81;5044538;28;20000;-54
2022/01/04 04:50:50;;;;;;;;;;;;;;;14.66;58.72;99851.34;5035959;28;20049;-52
2022/01/04 04:53:17;;;;;;;;;;;;;;;14.66;58.92;99852.16;5032301;28;20384;-55
2022/01/04 04:55:44;;;;;;;;;;;;;;;14.66;59.46;99849.34;5047359;28;20012;-55
2022/01/04 04:58:12;;;;;;;;;;;;;;;14.66;60.11;99843.75;5051823;28;19925;-57
2022/01/04 05:00:39;;;;;;;;;;;;;;;14.69;60.15;99845.06;5053438;28;19990;-54
2022/01/04 05:03:05;;;;;;;;;;;;;;;14.69;60.11;99831.84;5044233;28;19975;-53
2022/01/04 05:05:32;;;;;;;;;;;;;;;14.68;60.28;99849.06;5033907;28;20339;-54
2022/01/04 05:07:59;;;;;;;;;;;;;;;14.64;60.48;99848.88;5033014;28;20011;-54
2022/01/04 05:10:26;;;;;;;;;;;;;;;14.62;60.49;99828.69;5032873;28;20007;-53
2022/01/04 05:12:52;;;;;;;;;;;;;;;14.57;60.88;99820.44;5033106;28;19921;-54
2022/01/04 05:15:20;;;;;;;;;;;;;;;14.56;61.40;99801.88;5032998;28;20008;-55
2022/01/04 05:17:47;;;;;;;;;;;;;;;14.54;61.51;99812.63;5032928;28;20019;-54
2022/01/04 05:20:15;;;;;;;;;;;;;;;14.52;61.60;99795.28;5032870;28;19968;-54
2022/01/04 05:22:41;;;;;;;;;;;;;;;14.39;63.22;99763.31;5033305;28;20563;-54
2022/01/04 05:25:08;;;;;;;;;;;;;;;14.03;65.02;99787.94;5032793;28;19964;-54
2022/01/04 05:27:35;;;;;;;;;;;;;;;13.82;65.90;99760.41;5032608;28;20007;-51
2022/01/04 05:30:03;;;;;;;;;;;;;;;13.65;67.08;99761.16;5032559;28;19921;-52
2022/01/04 05:32:29;;;;;;;;;;;;;;;13.55;68.23;99797.88;5032957;28;20352;-49
2022/01/04 05:34:56;;;;;;;;;;;;;;;13.48;68.35;99798.31;5032730;28;19967;-51
2022/01/04 05:37:23;;;;;;;;;;;;;;;13.45;69.07;99751.28;5032587;28;20401;-49
2022/01/04 05:39:50;;;;;;;;;;;;;;;13.49;70.70;99776.69;5064654;28;20019;-49
2022/01/04 05:42:17;;;;;;;;;;;;;;;13.20;73.37;99810.75;5032845;28;19927;-50
2022/01/04 05:44:46;;;;;;;;;;;;;;;12.81;75.14;99770.16;5032608;28;19952;-52
2022/01/04 05:47:12;;;;;;;;;;;;;;;12.65;77.02;99754.81;5038632;28;19920;-51
2022/01/04 05:49:39;;;;;;;;;;;;;;;12.61;77.16;99793.84;5052033;28;19963;-51
2022/01/04 05:52:06;;;;;;;;;;;;;;;12.59;77.95;99800.91;5031872;28;20024;-52
2022/01/04 05:54:33;;;;;;;;;;;;;;;12.55;77.92;99798.72;5032761;28;20356;-51
2022/01/04 05:56:59;;;;;;;;;;;;;;;12.57;77.90;99759.19;5033210;28;19953;-52
2022/01/04 05:59:26;;;;;;;;;;;;;;;12.60;78.57;99766.16;5032540;28;20003;-52
2022/01/04 06:01:53;;;;;;;;;;;;;;;12.55;78.92;99759.53;5032686;28;20297;-54
2022/01/04 06:04:20;;;;;;;;;;;;;;;12.55;78.99;99748.31;5032347;28;20258;-52
2022/01/04 06:06:46;;;;;;;;;;;;;;;12.55;80.00;99753.94;5041545;28;20004;-53
2022/01/04 06:09:21;;;;;;;;;;;;;;;12.59;80.16;99756.94;5050208;28;20381;-49
2022/01/04 06:17:00;;;;;;;;;;;;;;;12.72;79.80;99721.63;5037483;28;19971;-52
2022/01/04 06:19:27;;;;;;;;;;;;;;;12.77;79.97;99718.69;5051963;28;19921;-51
2022/01/04 06:21:53;;;;;;;;;;;;;;;12.60;81.15;99710.97;5052124;28;19921;-53
2022/01/04 06:24:20;;;;;;;;;;;;;;;12.38;82.11;99744.50;5038569;28;20019;-49
2022/01/04 06:26:47;;;;;;;;;;;;;;;12.36;82.68;99719.63;5032295;28;20331;-52
2022/01/04 06:29:14;;;;;;;;;;;;;;;12.36;82.91;99725.22;5031839;28;19921;-53
2022/01/04 06:31:41;;;;;;;;;;;;;;;12.38;82.91;99708.13;5032400;28;20506;-52
2022/01/04 06:34:08;;;;;;;;;;;;;;;12.44;83.08;99721.66;5031735;28;20352;-52
2022/01/04 06:36:35;;;;;;;;;;;;;;;12.47;82.87;99704.25;5032276;28;20348;-51
2022/01/04 06:39:02;;;;;;;;;;;;;;;12.49;82.91;99715.97;5031825;28;19980;-51
2022/01/04 06:41:28;;;;;;;;;;;;;;;12.45;83.75;99712.13;5046014;28;20031;-53
2022/01/04 06:43:55;;;;;;;;;;;;;;;12.37;84.35;99726.84;5050585;28;19960;-52
2022/01/04 06:46:23;;;;;;;;;;;;;;;12.31;84.47;99705.75;5047133;28;19935;-50
2022/01/04 06:48:50;;;;;;;;;;;;;;;12.22;85.09;99691.63;5032166;28;20288;-52
2022/01/04 06:51:16;;;;;;;;;;;;;;;12.09;86.13;99726.88;5043125;28;20028;-51
2022/01/04 06:53:44;;;;;;;;;;;;;;;12.04;86.83;99698.19;5051346;28;20253;-49
2022/01/04 06:56:11;;;;;;;;;;;;;;;11.97;87.02;99707.00;5051957;28;20111;-50
2022/01/04 06:58:38;;;;;;;;;;;;;;;11.97;87.01;99717.38;5051456;28;19921;-49
2022/01/04 07:01:07;;;;;;;;;;;;;;;11.96;86.39;99722.09;5041893;28;19921;-48
2022/01/04 07:03:34;;;;;;;;;;;;;;;12.02;86.75;99726.47;5036063;28;19967;-53
2022/01/04 07:06:01;;;;;;;;;;;;;;;11.89;86.12;99737.66;5035143;28;20008;-49
2022/01/04 07:08:28;;;;;;;;;;;;;;;11.52;85.88;99734.66;5035561;28;20023;-54
2022/01/04 07:10:55;;;;;;;;;;;;;;;11.14;86.32;99768.28;5035064;28;19975;-49
2022/01/04 07:13:22;;;;;;;;;;;;;;;10.99;86.83;99748.94;5034881;28;19931;-52
2022/01/04 07:15:50;;;;;;;;;;;;;;;10.86;86.43;99802.78;5035030;28;19956;-51
2022/01/04 07:18:16;;;;;;;;;;;;;;;10.74;86.48;99824.75;5034841;28;20020;-51
2022/01/04 07:20:43;;;;;;;;;;;;;;;10.57;86.78;99828.84;5034569;28;19932;-51
2022/01/04 07:23:10;;;;;;;;;;;;;;;10.49;86.71;99867.75;5034951;28;19953;-51
2022/01/04 07:25:37;;;;;;;;;;;;;;;10.42;87.38;99873.69;5034705;28;19928;-51
2022/01/04 07:28:03;;;;;;;;;;;;;;;10.40;87.44;99881.53;5034231;28;19968;-53
2022/01/04 07:30:33;;;;;;;;;;;;;;;10.43;87.32;99892.94;5034574;28;19960;-49
2022/01/04 07:33:00;;;;;;;;;;;;;;;10.30;87.30;99878.88;5034788;28;20031;-50
2022/01/04 07:35:27;;;;;;;;;;;;;;;10.19;87.44;99898.47;5034416;28;19921;-51
2022/01/04 07:37:56;;;;;;;;;;;;;;;10.16;87.46;99896.25;5033684;28;20011;-49
2022/01/04 07:40:22;;;;;;;;;;;;;;;10.09;87.87;99904.16;5034637;28;20008;-52
2022/01/04 07:42:49;;;;;;;;;;;;;;;9.99;87.50;99904.25;5048692;28;20321;-51
2022/01/04 07:45:16;;;;;;;;;;;;;;;9.92;87.82;99892.59;5054330;28;20031;-53
2022/01/04 07:47:42;;;;;;;;;;;;;;;9.95;88.08;99931.06;5054479;28;19928;-50
2022/01/04 07:50:10;;;;;;;;;;;;;;;9.96;87.87;99941.09;5049433;28;20467;-51
2022/01/04 07:52:37;;;;;;;;;;;;;;;9.98;87.86;99952.75;5034155;28;20015;-50
2022/01/04 07:55:04;;;;;;;;;;;;;;;10.01;88.02;99973.66;5034983;28;20027;-52
2022/01/04 07:57:31;;;;;;;;;;;;;;;9.96;87.71;99978.16;5039517;28;20019;-48
2022/01/04 07:59:57;;;;;;;;;;;;;;;9.98;87.85;99986.22;5054012;28;20007;-52
2022/01/04 08:02:24;;;;;;;;;;;;;;;10.00;88.02;99984.00;5034920;28;20011;-51
2022/01/04 08:04:50;;;;;;;;;;;;;;;10.02;87.87;100004.09;5034131;28;20353;-48
2022/01/04 08:07:17;;;;;;;;;;;;;;;10.00;87.64;100020.25;5045420;28;19959;-50
2022/01/04 08:09:44;;;;;;;;;;;;;;;9.99;87.70;100029.75;5053607;28;19921;-51
2022/01/04 08:12:11;;;;;;;;;;;;;;;9.99;87.73;100032.56;5047044;28;19927;-50
2022/01/04 08:14:37;;;;;;;;;;;;;;;9.96;87.71;100038.72;5033049;28;20020;-50
2022/01/04 08:17:04;;;;;;;;;;;;;;;9.94;88.01;100035.34;5033589;28;19921;-50
2022/01/04 08:19:31;;;;;;;;;;;;;;;9.89;87.64;100047.41;5033628;28;19936;-51
2022/01/04 08:21:59;;;;;;;;;;;;;;;9.90;87.47;100051.84;5033976;28;19964;-48
2022/01/04 08:24:25;;;;;;;;;;;;;;;9.91;87.65;100061.03;5033516;28;20015;-53
2022/01/04 08:26:52;;;;;;;;;;;;;;;9.91;87.41;100052.66;5044954;28;19959;-51
2022/01/04 08:29:19;;;;;;;;;;;;;;;9.95;87.68;100059.38;5051958;28;19999;-51
2022/01/04 08:31:46;;;;;;;;;;;;;;;9.97;87.65;100063.50;5053145;28;19921;-50
2022/01/04 08:34:13;;;;;;;;;;;;;;;10.01;87.34;100063.75;5052154;28;20235;-51
2022/01/04 08:36:40;;;;;;;;;;;;;;;10.01;87.48;100068.50;5033243;28;20424;-51
2022/01/04 08:39:14;;;;;;;;;;;;;;;10.01;87.64;100063.75;5045040;28;19974;-52
2022/01/04 08:41:42;;;;;;;;;;;;;;;9.98;87.34;100078.28;5053237;28;20019;-50
2022/01/04 08:44:09;;;;;;;;;;;;;;;9.99;87.47;100091.13;5053468;28;19920;-50
2022/01/04 08:46:36;;;;;;;;;;;;;;;9.98;87.28;100114.53;5040193;28;20024;-51
2022/01/04 08:49:07;;;;;;;;;;;;;;;9.97;87.26;100118.47;5033195;28;19920;-49
2022/01/04 08:51:36;;;;;;;;;;;;;;;9.99;87.21;100126.56;5033207;28;20020;-51
2022/01/04 08:54:04;;;;;;;;;;;;;;;10.00;87.15;100126.25;5033245;28;19971;-50
2022/01/04 08:56:31;;;;;;;;;;;;;;;10.04;87.16;100135.72;5033397;28;19921;-48
2022/01/04 08:58:57;;;;;;;;;;;;;;;10.03;86.95;100150.81;5032934;28;19975;-51
2022/01/04 09:01:24;;;;;;;;;;;;;;;9.99;87.04;100149.72;5032843;28;20012;-52
2022/01/04 09:03:51;;;;;;;;;;;;;;;9.97;87.16;100177.03;5044701;28;19928;-51
2022/01/04 09:06:19;;;;;;;;;;;;;;;9.94;87.04;100175.66;5047502;28;19921;-48
2022/01/04 09:08:46;;;;;;;;;;;;;;;9.97;86.90;100179.84;5032632;28;19921;-50
2022/01/04 09:11:15;;;;;;;;;;;;;;;9.99;86.93;100197.13;5032813;28;20032;-52
2022/01/04 09:13:44;;;;;;;;;;;;;;;10.01;86.78;100210.78;5031895;28;19920;-49
2022/01/04 09:18:58;;;;;;;;;;;;;;;10.02;86.78;100232.00;5032415;28;19921;-49
2022/01/04 09:21:30;;;;;;;;;;;;;;;10.01;86.64;100242.31;5033248;28;19921;-50
2022/01/04 09:23:59;;;;;;;;;;;;;;;9.98;86.83;100251.22;5032903;28;19982;-49
2022/01/04 09:26:28;;;;;;;;;;;;;;;9.97;86.92;100249.56;5031839;28;19921;-53
2022/01/04 09:28:55;;;;;;;;;;;;;;;10.01;86.82;100250.66;5032321;28;19921;-51
2022/01/04 09:31:22;;;;;;;;;;;;;;;10.03;86.88;100256.81;5032414;28;19924;-53
2022/01/04 09:33:50;;;;;;;;;;;;;;;10.04;86.93;100258.47;5032655;28;19967;-52
2022/01/04 09:36:28;;;;;;;;;;;;;;;10.06;86.75;100264.63;5032983;28;20013;-53
2022/01/04 09:38:55;;;;;;;;;;;;;;;10.02;86.74;100271.88;5031987;28;20012;-51
2022/01/04 09:41:22;;;;;;;;;;;;;;;10.01;86.57;100281.34;5032665;28;20024;-50
2022/01/04 09:43:49;;;;;;;;;;;;;;;9.99;86.54;100303.13;5032159;28;20009;-51
2022/01/04 09:46:16;;;;;;;;;;;;;;;9.99;86.40;100307.88;5032096;28;19972;-53
2022/01/04 09:48:43;;;;;;;;;;;;;;;9.97;86.53;100319.31;5032362;28;19921;-54
2022/01/04 09:51:11;;;;;;;;;;;;;;;9.93;85.97;100307.06;5043861;28;20016;-52
2022/01/04 09:53:37;;;;;;;;;;;;;;;9.86;85.76;100328.81;5032902;28;19920;-54
2022/01/04 09:56:04;;;;;;;;;;;;;;;9.84;85.84;100331.88;5032280;28;20311;-52
2022/01/04 09:58:32;;;;;;;;;;;;;;;9.85;85.75;100349.47;5032019;28;20040;-51
2022/01/04 10:00:58;;;;;;;;;;;;;;;9.83;85.75;100352.53;5032238;28;19952;-52
2022/01/04 10:03:29;;;;;;;;;;;;;;;9.85;85.88;100343.91;5032336;28;19921;-51
2022/01/04 10:06:04;;;;;;;;;;;;;;;9.84;85.64;100348.63;5032040;28;19971;-53
2022/01/04 10:08:31;;;;;;;;;;;;;;;9.86;85.67;100354.75;5038314;28;19997;-53
2022/01/04 10:11:08;;;;;;;;;;;;;;;9.87;85.82;100356.41;5071559;28;19928;-52
2022/01/04 10:13:35;;;;;;;;;;;;;;;9.87;85.45;100347.22;5032135;28;19960;-55
2022/01/04 10:16:01;;;;;;;;;;;;;;;9.85;85.38;100347.53;5032401;28;19948;-53
2022/01/04 10:18:28;;;;;;;;;;;;;;;9.82;84.92;100359.22;5040093;28;19931;-49
2022/01/04 10:20:58;;;;;;;;;;;;;;;9.81;85.10;100370.66;5036977;28;19921;-48
2022/01/04 10:23:26;;;;;;;;;;;;;;;9.87;85.33;100369.53;5031930;28;20372;-48
2022/01/04 10:26:00;;;;;;;;;;;;;;;9.94;85.37;100367.28;5032005;28;20695;-51
2022/01/04 10:28:28;;;;;;;;;;;;;;;10.00;85.05;100363.38;5032349;28;19967;-52
2022/01/04 10:30:58;;;;;;;;;;;;;;;10.07;84.95;100369.50;5031927;28;20023;-51
2022/01/04 10:33:25;;;;;;;;;;;;;;;10.12;84.86;100368.66;5032215;28;19948;-50
2022/01/04 10:35:53;;;;;;;;;;;;;;;10.13;84.93;100385.13;5030619;28;19921;-50
2022/01/04 10:38:22;;;;;;;;;;;;;;;10.16;84.84;100381.78;5035207;28;19972;-53
2022/01/04 10:40:50;;;;;;;;;;;;;;;10.21;84.86;100390.13;5036253;28;19925;-50
2022/01/04 10:43:21;;;;;;;;;;;;;;;10.30;84.98;100396.00;5046903;28;20011;-52
2022/01/04 10:45:48;;;;;;;;;;;;;;;10.36;84.54;100396.84;5053762;28;19997;-50
2022/01/04 10:48:18;;;;;;;;;;;;;;;10.35;84.36;100398.78;5036025;28;19928;-52
2022/01/04 10:50:46;;;;;;;;;;;;;;;10.34;83.98;100390.69;5044473;28;20003;-50
2022/01/04 10:53:18;;;;;;;;;;;;;;;10.34;84.19;100413.03;5041796;28;19986;-50
2022/01/04 10:55:47;;;;;;;;;;;;;;;10.36;83.96;100421.97;5035682;28;20019;-53
2022/01/04 10:58:36;;;;;;;;;;;;;;;10.38;84.19;100430.88;5035632;28;20015;-52
2022/01/04 11:01:06;;;;;;;;;;;;;;;10.43;84.01;100431.72;5037087;28;19925;-49
2022/01/04 11:03:34;;;;;;;;;;;;;;;10.47;84.01;100434.78;5036211;28;19975;-51
2022/01/04 11:06:03;;;;;;;;;;;;;;;10.54;83.83;100446.47;5034422;28;19927;-50
2022/01/04 11:08:30;;;;;;;;;;;;;;;10.65;84.02;100448.13;5035311;28;20119;-52
2022/01/04 11:10:58;;;;;;;;;;;;;;;10.90;84.14;100443.56;5035671;28;19949;-49
2022/01/04 11:13:25;;;;;;;;;;;;;;;11.21;84.35;100443.41;5041963;28;20023;-52
2022/01/04 11:15:53;;;;;;;;;;;;;;;11.48;84.17;100435.44;5055385;28;20360;-49
2022/01/04 11:18:20;;;;;;;;;;;;;;;11.79;84.07;100438.00;5048603;28;19925;-53
2022/01/04 11:20:47;;;;;;;;;;;;;;;12.03;83.65;100444.59;5034939;28;19956;-50
2022/01/04 11:23:15;;;;;;;;;;;;;;;12.30;83.58;100437.59;5035122;28;20027;-52
2022/01/04 11:25:45;;;;;;;;;;;;;;;12.57;83.42;100439.84;5049069;28;20020;-52
2022/01/04 11:28:12;;;;;;;;;;;;;;;12.85;83.19;100437.28;5035140;28;20015;-47
2022/01/04 11:30:48;;;;;;;;;;;;;;;12.99;82.50;100444.69;5035318;28;19960;-50
2022/01/04 11:33:25;;;;;;;;;;;;;;;13.06;82.39;100447.13;5034877;28;20027;-48
2022/01/04 11:35:52;;;;;;;;;;;;;;;13.11;82.14;100446.22;5035916;28;20312;-49
2022/01/04 11:38:32;;;;;;;;;;;;;;;13.11;81.85;100451.84;5034806;28;19964;-49
2022/01/04 11:41:00;;;;;;;;;;;;;;;13.16;81.84;100460.16;5034941;28;19968;-50
2022/01/04 11:43:27;;;;;;;;;;;;;;;13.15;81.54;100461.31;5034945;28;19921;-52
2022/01/04 11:45:53;;;;;;;;;;;;;;;13.15;81.68;100462.13;5034922;28;20339;-52
2022/01/04 11:48:25;;;;;;;;;;;;;;;13.23;81.27;100467.09;5033987;28;20928;-51
2022/01/04 11:50:57;;;;;;;;;;;;;;;13.32;80.95;100469.25;5038815;28;20015;-49
2022/01/04 11:53:24;;;;;;;;;;;;;;;13.12;79.72;100465.53;5054131;28;20329;-49
2022/01/04 11:55:55;;;;;;;;;;;;;;;12.79;78.98;100472.97;5054788;28;20000;-53
2022/01/04 11:58:26;;;;;;;;;;;;;;;12.55;78.91;100470.97;5068102;28;19932;-52
2022/01/04 12:00:56;;;;;;;;;;;;;;;12.44;79.03;100460.16;5034765;28;19976;-49
2022/01/04 12:03:35;;;;;;;;;;;;;;;12.71;79.91;100468.00;5034738;28;19932;-52
2022/01/04 12:06:02;;;;;;;;;;;;;;;13.13;79.39;100469.16;5034457;28;20023;-49
2022/01/04 12:08:36;;;;;;;;;;;;;;;13.44;78.51;100456.47;5034229;28;20015;-50
2022/01/04 12:11:26;;;;;;;;;;;;;;;13.64;77.04;100454.47;5035075;28;19943;-49
2022/01/04 12:13:53;;;;;;;;;;;;;;;14.60;77.13;100459.66;5034275;28;20439;-50
2022/01/04 12:16:35;;;;;;;;;;;;;;;16.21;77.83;100460.34;5034200;28;19921;-51
2022/01/04 12:19:04;;;;;;;;;;;;;;;17.95;73.49;100459.03;5041741;28;19936;-49
2022/01/04 12:21:32;;;;;;;;;;;;;;;18.73;69.49;100467.38;5042067;28;20316;-49
2022/01/04 12:23:59;;;;;;;;;;;;;;;17.98;67.33;100461.16;5034012;28;19948;-53
2022/01/04 12:26:33;;;;;;;;;;;;;;;17.92;69.01;100457.69;5034795;28;19921;-50
2022/01/04 12:29:03;;;;;;;;;;;;;;;19.29;69.55;100456.00;5033769;28;20015;-50
2022/01/04 12:31:32;;;;;;;;;;;;;;;21.18;67.59;100459.44;5033992;28;20424;-53
2022/01/04 12:34:04;;;;;;;;;;;;;;;22.07;66.17;100453.75;5034287;28;19921;-50
2022/01/04 12:36:36;;;;;;;;;;;;;;;23.16;63.86;100453.53;5033988;28;19957;-50
2022/01/04 12:39:07;;;;;;;;;;;;;;;23.48;60.27;100444.94;5033802;28;19967;-50
2022/01/04 12:41:35;;;;;;;;;;;;;;;23.14;60.26;100445.34;5033931;28;19921;-47
2022/01/04 12:44:07;;;;;;;;;;;;;;;22.32;61.60;100454.50;5034201;28;20024;-51
2022/01/04 12:46:42;;;;;;;;;;;;;;;22.23;60.63;100439.63;5033578;28;19963;-50
2022/01/04 12:49:13;;;;;;;;;;;;;;;22.96;58.35;100448.94;5033639;28;19928;-48
2022/01/04 12:51:44;;;;;;;;;;;;;;;23.69;57.44;100454.00;5044014;28;20016;-51
2022/01/04 12:54:12;;;;;;;;;;;;;;;24.24;54.67;100452.00;5033427;28;20003;-53
2022/01/04 12:56:43;;;;;;;;;;;;;;;25.24;54.37;100448.19;5032398;28;20024;-51
2022/01/04 12:59:17;;;;;;;;;;;;;;;25.43;53.33;100447.25;5032965;28;20455;-51